createdAt,value
2018-10-19T00:02:54.648Z,0.00
2018-10-19T00:03:46.738Z,0.00
2018-10-19T00:04:47.747Z,0.00
2018-10-19T00:05:46.695Z,0.00
2018-10-19T00:06:52.595Z,0.00
2018-10-19T00:07:46.626Z,0.00
2018-10-19T00:08:46.651Z,0.00
2018-10-19T00:09:46.576Z,0.00
2018-10-19T00:10:52.660Z,0.00
2018-10-19T00:11:46.536Z,0.00
2018-10-19T00:13:50.556Z,0.00
2018-10-19T00:14:50.503Z,0.00
2018-10-19T00:15:57.278Z,0.00
2018-10-19T00:16:50.458Z,0.00
2018-10-19T00:17:50.508Z,0.00
2018-10-19T00:18:50.387Z,0.00
2018-10-19T00:19:50.381Z,0.00
2018-10-19T00:20:52.445Z,0.00
2018-10-19T00:21:50.312Z,0.00
2018-10-19T00:22:52.387Z,0.00
2018-10-19T00:23:50.267Z,0.00
2018-10-19T00:24:50.348Z,0.00
2018-10-19T00:25:50.242Z,0.00
2018-10-19T00:26:50.225Z,0.00
2018-10-19T00:27:50.155Z,0.00
2018-10-19T00:28:50.121Z,0.00
2018-10-19T00:29:50.107Z,0.00
2018-10-19T00:30:50.078Z,0.00
2018-10-19T00:31:50.058Z,0.00
2018-10-19T00:32:50.022Z,0.00
2018-10-19T00:33:49.989Z,0.00
2018-10-19T00:34:49.968Z,0.00
2018-10-19T00:35:49.935Z,0.00
2018-10-19T00:36:54.868Z,0.00
2018-10-19T00:37:49.883Z,0.00
2018-10-19T00:38:49.868Z,0.00
2018-10-19T00:40:51.275Z,0.00
2018-10-19T00:41:51.228Z,0.00
2018-10-19T00:42:51.193Z,0.00
2018-10-19T00:43:51.167Z,0.00
2018-10-19T00:44:51.157Z,0.00
2018-10-19T00:45:51.120Z,0.00
2018-10-19T00:46:51.096Z,0.00
2018-10-19T00:47:51.065Z,0.00
2018-10-19T00:48:51.032Z,0.00
2018-10-19T00:49:51.012Z,0.00
2018-10-19T00:50:50.990Z,0.00
2018-10-19T00:51:50.955Z,0.00
2018-10-19T00:52:50.938Z,0.00
2018-10-19T00:53:50.975Z,0.00
2018-10-19T00:54:50.871Z,0.00
2018-10-19T00:55:50.885Z,0.00
2018-10-19T00:56:50.825Z,0.00
2018-10-19T00:57:50.823Z,0.00
2018-10-19T00:58:50.779Z,0.00
2018-10-19T00:59:50.742Z,0.00
2018-10-19T01:00:50.715Z,0.00
2018-10-19T01:01:50.701Z,0.00
2018-10-19T01:02:50.661Z,0.00
2018-10-19T01:03:50.642Z,0.00
2018-10-19T01:04:50.609Z,0.00
2018-10-19T01:05:50.581Z,0.00
2018-10-19T01:06:50.551Z,0.00
2018-10-19T01:07:50.535Z,0.00
2018-10-19T01:09:36.316Z,0.00
2018-10-19T01:10:36.267Z,0.00
2018-10-19T01:11:36.239Z,0.00
2018-10-19T01:12:36.210Z,0.00
2018-10-19T01:13:36.266Z,0.00
2018-10-19T01:14:36.151Z,0.00
2018-10-19T01:15:36.178Z,0.00
2018-10-19T01:16:36.105Z,0.00
2018-10-19T01:17:37.114Z,0.00
2018-10-19T01:18:36.060Z,0.00
2018-10-19T01:19:36.097Z,0.00
2018-10-19T01:20:35.992Z,0.00
2018-10-19T01:21:36.009Z,0.00
2018-10-19T01:22:35.944Z,0.00
2018-10-19T01:23:36.027Z,0.00
2018-10-19T01:24:35.899Z,0.00
2018-10-19T01:25:35.863Z,0.00
2018-10-19T01:26:35.941Z,0.00
2018-10-19T01:27:35.809Z,0.00
2018-10-19T01:28:36.882Z,0.00
2018-10-19T01:29:35.770Z,0.00
2018-10-19T01:30:35.738Z,0.00
2018-10-19T01:31:46.633Z,0.00
2018-10-19T01:32:35.697Z,0.00
2018-10-19T01:33:37.753Z,0.00
2018-10-19T01:34:35.672Z,0.00
2018-10-19T01:35:35.716Z,0.00
2018-10-19T01:36:35.594Z,0.00
2018-10-19T01:37:35.544Z,0.00
2018-10-19T01:38:35.518Z,0.00
2018-10-19T01:39:35.497Z,0.00
2018-10-19T01:41:38.140Z,0.00
2018-10-19T01:42:38.029Z,0.00
2018-10-19T01:43:38.043Z,0.00
2018-10-19T01:44:37.987Z,0.00
2018-10-19T01:45:38.045Z,0.00
2018-10-19T01:46:37.915Z,0.00
2018-10-19T01:47:38.966Z,0.00
2018-10-19T01:48:37.864Z,0.00
2018-10-19T01:51:27.684Z,0.00
2018-10-19T01:52:26.545Z,0.00
2018-10-19T01:53:27.557Z,0.00
2018-10-19T01:54:26.478Z,0.00
2018-10-19T01:55:26.539Z,0.00
2018-10-19T01:56:26.438Z,0.00
2018-10-19T01:57:27.463Z,0.00
2018-10-19T01:58:26.371Z,0.00
2018-10-19T01:59:26.489Z,0.00
2018-10-19T02:00:26.311Z,0.00
2018-10-19T02:01:26.365Z,0.00
2018-10-19T02:02:26.273Z,0.00
2018-10-19T02:03:30.824Z,0.00
2018-10-19T02:04:26.229Z,0.00
2018-10-19T02:05:26.298Z,0.00
2018-10-19T02:06:26.169Z,0.00
2018-10-19T02:07:27.224Z,0.00
2018-10-19T02:08:26.118Z,0.00
2018-10-19T02:09:27.134Z,0.00
2018-10-19T02:10:26.049Z,0.00
2018-10-19T02:11:26.123Z,0.00
2018-10-19T02:13:54.373Z,0.00
2018-10-19T02:14:54.337Z,0.00
2018-10-19T02:15:54.255Z,0.00
2018-10-19T02:16:54.233Z,0.00
2018-10-19T02:17:54.135Z,0.00
2018-10-19T02:18:55.149Z,0.00
2018-10-19T02:19:54.110Z,0.00
2018-10-19T02:20:55.236Z,0.00
2018-10-19T02:21:54.034Z,0.00
2018-10-19T02:22:54.055Z,0.00
2018-10-19T02:25:16.373Z,0.00
2018-10-19T02:26:18.450Z,0.00
2018-10-19T02:27:16.345Z,0.00
2018-10-19T02:28:52.146Z,0.00
2018-10-19T02:29:16.228Z,0.00
2018-10-19T02:30:16.203Z,0.00
2018-10-19T02:31:44.051Z,0.00
2018-10-19T02:32:16.162Z,0.00
2018-10-19T02:33:16.266Z,0.00
2018-10-19T02:34:16.092Z,0.00
2018-10-19T02:35:16.211Z,0.00
2018-10-19T02:36:16.049Z,0.00
2018-10-19T02:37:16.040Z,0.00
2018-10-19T02:38:15.993Z,0.00
2018-10-19T02:39:16.016Z,0.00
2018-10-19T02:40:15.934Z,0.00
2018-10-19T02:42:02.159Z,0.00
2018-10-19T02:43:02.116Z,0.00
2018-10-19T02:44:02.158Z,0.00
2018-10-19T02:45:02.070Z,0.00
2018-10-19T02:46:03.098Z,0.00
2018-10-19T02:47:02.028Z,0.00
2018-10-19T02:48:01.965Z,0.00
2018-10-19T02:49:01.944Z,0.00
2018-10-19T02:50:01.913Z,0.00
2018-10-19T02:51:01.953Z,0.00
2018-10-19T02:52:01.887Z,0.00
2018-10-19T02:53:01.918Z,0.00
2018-10-19T02:54:01.815Z,0.00
2018-10-19T02:55:01.778Z,0.00
2018-10-19T02:56:01.773Z,0.00
2018-10-19T02:57:01.995Z,0.00
2018-10-19T02:58:01.702Z,0.00
2018-10-19T02:59:02.820Z,0.00
2018-10-19T03:00:01.647Z,0.00
2018-10-19T03:01:01.621Z,0.00
2018-10-19T03:02:01.605Z,0.00
2018-10-19T03:03:01.605Z,0.00
2018-10-19T03:04:01.557Z,0.00
2018-10-19T03:05:01.571Z,0.00
2018-10-19T03:06:01.497Z,0.00
2018-10-19T03:07:01.462Z,0.00
2018-10-19T03:08:54.491Z,0.00
2018-10-19T03:09:54.390Z,0.00
2018-10-19T03:11:48.096Z,0.00
2018-10-19T03:12:48.046Z,0.00
2018-10-19T03:13:48.024Z,0.00
2018-10-19T03:14:47.992Z,0.00
2018-10-19T03:15:47.960Z,0.00
2018-10-19T03:16:47.943Z,0.00
2018-10-19T03:17:47.904Z,0.00
2018-10-19T03:18:47.878Z,0.00
2018-10-19T03:19:47.860Z,0.00
2018-10-19T03:20:47.826Z,0.00
2018-10-19T03:21:47.882Z,0.00
2018-10-19T03:22:47.789Z,0.00
2018-10-19T03:23:47.746Z,0.00
2018-10-19T03:24:47.799Z,0.00
2018-10-19T03:25:47.692Z,0.00
2018-10-19T03:26:47.660Z,0.00
2018-10-19T03:27:47.717Z,0.00
2018-10-19T03:28:47.607Z,0.00
2018-10-19T03:29:47.575Z,0.00
2018-10-19T03:30:47.575Z,0.00
2018-10-19T03:31:47.525Z,0.00
2018-10-19T03:32:47.485Z,0.00
2018-10-19T03:33:47.493Z,0.00
2018-10-19T03:34:47.456Z,0.00
2018-10-19T03:35:47.417Z,0.00
2018-10-19T03:36:47.397Z,0.00
2018-10-19T03:37:47.358Z,0.00
2018-10-19T03:38:47.337Z,0.00
2018-10-19T03:39:47.330Z,0.00
2018-10-19T03:40:47.275Z,0.00
2018-10-19T03:41:47.261Z,0.00
2018-10-19T03:42:47.224Z,0.00
2018-10-19T03:43:47.193Z,0.00
2018-10-19T03:44:47.165Z,0.00
2018-10-19T03:45:47.149Z,0.00
2018-10-19T03:46:47.127Z,0.00
2018-10-19T03:47:47.078Z,0.00
2018-10-19T03:48:47.166Z,0.00
2018-10-19T03:49:47.029Z,0.00
2018-10-19T03:50:47.007Z,0.00
2018-10-19T03:51:47.065Z,0.00
2018-10-19T03:52:46.947Z,0.00
2018-10-19T03:53:46.971Z,0.00
2018-10-19T03:54:46.894Z,0.00
2018-10-19T03:55:46.881Z,0.00
2018-10-19T03:56:46.839Z,0.00
2018-10-19T03:57:46.908Z,0.00
2018-10-19T03:58:46.785Z,0.00
2018-10-19T03:59:46.760Z,0.00
2018-10-19T04:00:46.817Z,0.00
2018-10-19T04:01:46.703Z,0.00
2018-10-19T04:02:32.578Z,0.00
2018-10-19T04:03:32.541Z,0.00
2018-10-19T04:05:27.336Z,0.00
2018-10-19T04:06:26.195Z,0.00
2018-10-19T04:07:26.177Z,0.00
2018-10-19T04:08:26.125Z,0.00
2018-10-19T04:09:26.109Z,0.00
2018-10-19T04:10:26.082Z,0.00
2018-10-19T04:11:26.057Z,0.00
2018-10-19T04:12:33.038Z,0.00
2018-10-19T04:13:26.010Z,0.00
2018-10-19T04:14:28.055Z,0.00
2018-10-19T04:15:25.938Z,0.00
2018-10-19T04:16:25.999Z,0.00
2018-10-19T04:17:25.890Z,0.00
2018-10-19T04:19:01.563Z,0.00
2018-10-19T04:19:25.853Z,0.00
2018-10-19T04:20:31.444Z,0.00
2018-10-19T04:21:25.780Z,0.00
2018-10-19T04:23:03.516Z,0.00
2018-10-19T04:23:25.724Z,0.00
2018-10-19T04:24:25.700Z,0.00
2018-10-19T04:25:38.514Z,0.00
2018-10-19T04:59:29.157Z,0.00
2018-10-19T05:00:30.259Z,0.00
2018-10-19T05:01:29.104Z,0.00
2018-10-19T05:02:29.300Z,0.00
2018-10-19T05:03:29.047Z,0.00
2018-10-19T05:04:29.104Z,0.00
2018-10-19T05:05:29.057Z,0.00
2018-10-19T05:06:29.113Z,0.00
2018-10-19T05:07:23.101Z,0.00
2018-10-19T05:08:23.188Z,0.00
2018-10-19T05:09:23.041Z,0.00
2018-10-19T05:10:23.039Z,0.00
2018-10-19T05:11:22.982Z,0.00
2018-10-19T05:12:23.995Z,0.00
2018-10-19T05:18:04.081Z,0.00
2018-10-19T05:19:04.029Z,0.00
2018-10-19T05:20:04.182Z,0.00
2018-10-19T05:21:03.980Z,0.00
2018-10-19T05:22:04.027Z,0.00
2018-10-19T05:23:03.983Z,0.00
2018-10-19T05:24:03.938Z,0.00
2018-10-19T05:25:03.859Z,0.00
2018-10-19T05:26:03.990Z,0.00
2018-10-19T05:27:03.807Z,0.00
2018-10-19T05:28:04.897Z,0.00
2018-10-19T05:29:03.794Z,0.00
2018-10-19T05:30:03.772Z,0.00
2018-10-19T05:31:03.729Z,0.00
2018-10-19T05:32:08.547Z,0.00
2018-10-19T05:33:03.662Z,0.00
2018-10-19T05:34:05.730Z,0.00
2018-10-19T05:35:03.679Z,0.00
2018-10-19T05:36:08.510Z,0.00
2018-10-19T05:39:34.931Z,0.00
2018-10-19T05:40:34.972Z,0.00
2018-10-19T05:41:34.835Z,0.00
2018-10-19T05:42:34.887Z,0.00
2018-10-19T05:43:34.861Z,0.00
2018-10-19T05:44:34.790Z,0.00
2018-10-19T05:45:34.738Z,0.00
2018-10-19T05:46:40.723Z,0.00
2018-10-19T05:47:34.666Z,0.00
2018-10-19T05:51:37.123Z,0.00
2018-10-19T05:52:39.044Z,0.00
2018-10-19T05:54:47.407Z,0.00
2018-10-19T05:55:45.400Z,5.63
2018-10-19T05:56:46.330Z,5.63
2018-10-19T05:57:45.280Z,5.63
2018-10-19T05:58:45.325Z,5.63
2018-10-19T05:59:45.198Z,5.63
2018-10-19T06:00:45.161Z,5.63
2018-10-19T06:01:45.232Z,5.63
2018-10-19T06:02:45.186Z,5.63
2018-10-19T06:03:46.154Z,5.63
2018-10-19T06:04:45.058Z,5.63
2018-10-19T06:05:45.167Z,5.63
2018-10-19T06:06:45.010Z,5.63
2018-10-19T06:07:32.009Z,5.63
2018-10-19T06:08:31.889Z,5.63
2018-10-19T06:09:31.876Z,5.63
2018-10-19T06:10:31.847Z,11.25
2018-10-19T06:11:36.733Z,11.25
2018-10-19T06:12:31.787Z,11.25
2018-10-19T06:13:36.803Z,11.25
2018-10-19T06:14:31.717Z,11.25
2018-10-19T06:15:31.770Z,11.25
2018-10-19T06:16:31.658Z,16.88
2018-10-19T06:18:22.846Z,16.88
2018-10-19T06:19:22.819Z,16.88
2018-10-19T06:20:34.403Z,16.88
2018-10-19T06:21:22.819Z,16.88
2018-10-19T06:22:22.799Z,16.88
2018-10-19T06:23:22.689Z,16.88
2018-10-19T06:24:22.716Z,22.50
2018-10-19T06:25:22.666Z,22.50
2018-10-19T06:26:27.521Z,22.50
2018-10-19T06:29:02.268Z,22.50
2018-10-19T06:30:02.194Z,22.50
2018-10-19T06:31:08.968Z,22.50
2018-10-19T06:32:02.213Z,28.13
2018-10-19T06:33:04.140Z,28.13
2018-10-19T06:34:02.093Z,28.13
2018-10-19T06:35:02.220Z,28.13
2018-10-19T06:36:02.049Z,28.13
2018-10-19T06:37:02.119Z,28.13
2018-10-19T06:38:02.054Z,33.75
2018-10-19T06:39:03.072Z,33.75
2018-10-19T06:40:01.926Z,33.75
2018-10-19T06:41:02.027Z,33.75
2018-10-19T06:42:01.873Z,33.75
2018-10-19T06:49:52.128Z,39.38
2018-10-19T06:50:45.901Z,39.38
2018-10-19T06:51:58.759Z,45.00
2018-10-19T06:52:45.878Z,45.00
2018-10-19T06:53:45.849Z,45.00
2018-10-19T06:54:45.805Z,45.00
2018-10-19T06:55:45.748Z,45.00
2018-10-19T06:56:45.858Z,45.00
2018-10-19T06:57:45.701Z,50.63
2018-10-19T06:58:45.721Z,50.63
2018-10-19T06:59:45.686Z,50.63
2018-10-19T07:00:45.653Z,50.63
2018-10-19T07:01:45.651Z,50.63
2018-10-19T07:02:45.555Z,56.25
2018-10-19T07:03:45.559Z,56.25
2018-10-19T07:04:45.518Z,56.25
2018-10-19T07:05:45.536Z,56.25
2018-10-19T07:06:45.465Z,56.25
2018-10-19T07:07:45.528Z,61.88
2018-10-19T07:08:45.501Z,61.88
2018-10-19T07:09:45.373Z,61.88
2018-10-19T07:10:45.384Z,67.50
2018-10-19T07:11:45.372Z,67.50
2018-10-19T07:12:45.299Z,67.50
2018-10-19T07:13:45.280Z,67.50
2018-10-19T07:14:45.225Z,67.50
2018-10-19T07:16:31.871Z,67.50
2018-10-19T07:17:31.832Z,73.13
2018-10-19T07:18:31.805Z,73.13
2018-10-19T07:19:31.762Z,73.13
2018-10-19T07:20:31.825Z,73.13
2018-10-19T07:21:31.748Z,73.13
2018-10-19T07:22:31.694Z,73.13
2018-10-19T07:23:31.667Z,78.75
2018-10-19T07:25:17.915Z,73.13
2018-10-19T07:26:17.838Z,73.13
2018-10-19T07:28:11.361Z,73.13
2018-10-19T07:29:11.307Z,78.75
2018-10-19T07:30:11.271Z,78.75
2018-10-19T07:31:11.260Z,78.75
2018-10-19T07:32:11.295Z,78.75
2018-10-19T07:33:11.236Z,78.75
2018-10-19T07:34:11.159Z,84.38
2018-10-19T07:35:12.343Z,78.75
2018-10-19T07:36:11.118Z,78.75
2018-10-19T07:37:11.134Z,78.75
2018-10-19T07:38:11.074Z,78.75
2018-10-19T07:39:11.022Z,84.38
2018-10-19T07:40:10.994Z,84.38
2018-10-19T07:41:11.017Z,84.38
2018-10-19T07:42:10.996Z,84.38
2018-10-19T07:43:10.953Z,84.38
2018-10-19T07:44:11.938Z,84.38
2018-10-19T07:45:10.867Z,84.38
2018-10-19T07:46:10.906Z,84.38
2018-10-19T07:47:10.891Z,84.38
2018-10-19T07:48:10.947Z,90.00
2018-10-19T07:49:10.795Z,90.00
2018-10-19T07:50:10.846Z,90.00
2018-10-19T07:51:10.695Z,90.00
2018-10-19T07:52:10.724Z,90.00
2018-10-19T07:53:10.700Z,90.00
2018-10-19T07:54:10.697Z,95.63
2018-10-19T07:55:10.616Z,90.00
2018-10-19T07:56:10.578Z,95.63
2018-10-19T07:57:10.547Z,95.63
2018-10-19T07:58:10.513Z,95.63
2018-10-19T07:59:10.654Z,95.63
2018-10-19T08:00:10.500Z,95.63
2018-10-19T08:01:10.524Z,95.63
2018-10-19T08:02:10.573Z,101.25
2018-10-19T08:03:10.393Z,101.25
2018-10-19T08:04:10.359Z,101.25
2018-10-19T08:05:10.381Z,101.25
2018-10-19T08:06:10.281Z,101.25
2018-10-19T08:07:10.256Z,101.25
2018-10-19T08:08:10.300Z,106.88
2018-10-19T08:10:00.803Z,106.88
2018-10-19T08:11:00.758Z,106.88
2018-10-19T08:12:00.717Z,106.88
2018-10-19T08:13:00.708Z,106.88
2018-10-19T08:14:00.727Z,112.50
2018-10-19T08:15:00.639Z,112.50
2018-10-19T08:16:00.596Z,112.50
2018-10-19T08:17:00.624Z,112.50
2018-10-19T08:18:00.558Z,112.50
2018-10-19T08:19:00.562Z,112.50
2018-10-19T08:20:00.556Z,118.13
2018-10-19T08:21:00.460Z,118.13
2018-10-19T08:22:00.435Z,118.13
2018-10-19T08:23:00.458Z,118.13
2018-10-19T08:24:00.384Z,123.75
2018-10-19T08:25:00.356Z,123.75
2018-10-19T08:26:00.347Z,123.75
2018-10-19T08:27:00.609Z,123.75
2018-10-19T08:28:00.289Z,129.38
2018-10-19T08:29:00.254Z,129.38
2018-10-19T08:30:00.233Z,123.75
2018-10-19T08:31:46.322Z,129.38
2018-10-19T08:32:46.247Z,129.38
2018-10-19T08:33:46.221Z,129.38
2018-10-19T08:34:46.252Z,129.38
2018-10-19T08:35:46.155Z,129.38
2018-10-19T08:36:46.275Z,129.38
2018-10-19T08:37:46.120Z,129.38
2018-10-19T08:38:46.080Z,129.38
2018-10-19T08:39:46.084Z,129.38
2018-10-19T08:40:46.037Z,129.38
2018-10-19T08:41:46.087Z,129.38
2018-10-19T08:42:46.119Z,129.38
2018-10-19T08:43:45.946Z,129.38
2018-10-19T08:44:45.906Z,129.38
2018-10-19T08:45:47.951Z,129.38
2018-10-19T08:46:45.867Z,129.38
2018-10-19T08:47:45.954Z,129.38
2018-10-19T08:48:45.829Z,129.38
2018-10-19T08:49:45.789Z,129.38
2018-10-19T08:50:45.757Z,129.38
2018-10-19T08:51:45.715Z,129.38
2018-10-19T08:52:45.762Z,129.38
2018-10-19T08:53:45.684Z,129.38
2018-10-19T08:54:45.709Z,129.38
2018-10-19T08:55:45.608Z,129.38
2018-10-19T08:56:45.595Z,129.38
2018-10-19T08:57:45.570Z,129.38
2018-10-19T08:58:45.553Z,129.38
2018-10-19T08:59:46.611Z,129.38
2018-10-19T09:00:45.475Z,129.38
2018-10-19T09:01:45.458Z,129.38
2018-10-19T09:02:45.438Z,129.38
2018-10-19T09:04:31.268Z,135.00
2018-10-19T09:05:32.323Z,135.00
2018-10-19T09:06:31.208Z,135.00
2018-10-19T09:07:31.166Z,135.00
2018-10-19T09:08:31.156Z,135.00
2018-10-19T09:09:31.112Z,135.00
2018-10-19T09:10:31.076Z,135.00
2018-10-19T09:11:31.078Z,135.00
2018-10-19T09:12:31.134Z,135.00
2018-10-19T09:13:31.074Z,135.00
2018-10-19T09:14:30.974Z,135.00
2018-10-19T09:15:30.958Z,135.00
2018-10-19T09:16:30.964Z,135.00
2018-10-19T09:17:30.887Z,140.63
2018-10-19T09:18:30.940Z,140.63
2018-10-19T09:19:30.862Z,140.63
2018-10-19T09:20:30.916Z,140.63
2018-10-19T09:21:30.772Z,140.63
2018-10-19T09:22:30.777Z,140.63
2018-10-19T09:23:30.807Z,140.63
2018-10-19T09:24:30.695Z,146.25
2018-10-19T09:25:30.755Z,146.25
2018-10-19T09:26:30.628Z,140.63
2018-10-19T09:27:30.638Z,140.63
2018-10-19T09:28:30.640Z,135.00
2018-10-19T09:29:30.619Z,135.00
2018-10-19T09:30:30.543Z,135.00
2018-10-19T09:31:30.538Z,135.00
2018-10-19T09:32:30.466Z,129.38
2018-10-19T09:33:30.463Z,129.38
2018-10-19T09:34:30.476Z,129.38
2018-10-19T09:35:30.452Z,135.00
2018-10-19T09:36:30.566Z,129.38
2018-10-19T09:37:30.354Z,129.38
2018-10-19T09:38:30.301Z,129.38
2018-10-19T09:39:30.271Z,135.00
2018-10-19T09:40:30.378Z,135.00
2018-10-19T09:41:30.212Z,135.00
2018-10-19T09:42:30.255Z,135.00
2018-10-19T09:43:30.163Z,135.00
2018-10-19T09:44:30.244Z,135.00
2018-10-19T09:45:30.138Z,129.38
2018-10-19T09:46:30.102Z,129.38
2018-10-19T09:47:30.150Z,135.00
2018-10-19T09:48:30.130Z,129.38
2018-10-19T09:49:30.124Z,129.38
2018-10-19T09:50:30.141Z,129.38
2018-10-19T09:51:29.981Z,123.75
2018-10-19T09:52:30.109Z,129.38
2018-10-19T09:53:29.993Z,129.38
2018-10-19T09:54:29.851Z,135.00
2018-10-19T09:55:29.899Z,129.38
2018-10-19T09:56:29.813Z,129.38
2018-10-19T09:57:29.949Z,135.00
2018-10-19T09:58:29.770Z,135.00
2018-10-19T09:59:31.836Z,140.63
2018-10-19T10:00:29.807Z,146.25
2018-10-19T10:01:29.754Z,146.25
2018-10-19T10:02:29.677Z,140.63
2018-10-19T10:03:29.669Z,140.63
2018-10-19T10:04:29.632Z,140.63
2018-10-19T10:05:29.689Z,140.63
2018-10-19T10:06:29.543Z,140.63
2018-10-19T10:07:29.618Z,140.63
2018-10-19T10:08:29.497Z,146.25
2018-10-19T10:09:29.463Z,146.25
2018-10-19T10:10:29.498Z,146.25
2018-10-19T10:12:19.390Z,146.25
2018-10-19T10:13:19.297Z,146.25
2018-10-19T10:14:19.270Z,146.25
2018-10-19T10:15:19.366Z,151.88
2018-10-19T10:16:19.214Z,151.88
2018-10-19T10:17:19.202Z,151.88
2018-10-19T10:18:19.219Z,157.50
2018-10-19T10:19:19.485Z,157.50
2018-10-19T10:20:19.117Z,151.88
2018-10-19T10:21:19.082Z,157.50
2018-10-19T10:22:19.062Z,157.50
2018-10-19T10:23:19.194Z,157.50
2018-10-19T10:24:18.994Z,163.13
2018-10-19T10:25:09.149Z,163.13
2018-10-19T10:26:09.124Z,163.13
2018-10-19T10:27:09.049Z,163.13
2018-10-19T10:28:09.055Z,163.13
2018-10-19T10:29:09.018Z,163.13
2018-10-19T10:30:13.771Z,163.13
2018-10-19T10:31:09.011Z,168.75
2018-10-19T10:32:09.004Z,168.75
2018-10-19T10:33:08.859Z,163.13
2018-10-19T10:34:08.951Z,163.13
2018-10-19T10:35:08.802Z,168.75
2018-10-19T10:36:08.882Z,168.75
2018-10-19T10:37:08.791Z,163.13
2018-10-19T10:38:09.819Z,168.75
2018-10-19T10:39:08.884Z,174.38
2018-10-19T10:40:08.742Z,174.38
2018-10-19T10:41:08.620Z,174.38
2018-10-19T10:44:19.890Z,174.38
2018-10-19T10:45:19.933Z,174.38
2018-10-19T10:46:19.803Z,174.38
2018-10-19T10:47:19.821Z,174.38
2018-10-19T10:48:19.741Z,180.00
2018-10-19T10:49:25.576Z,180.00
2018-10-19T10:50:19.700Z,180.00
2018-10-19T10:51:19.667Z,180.00
2018-10-19T10:52:24.565Z,180.00
2018-10-19T10:53:19.603Z,180.00
2018-10-19T10:54:19.574Z,174.38
2018-10-19T10:55:19.572Z,174.38
2018-10-19T10:56:19.560Z,174.38
2018-10-19T10:57:19.570Z,174.38
2018-10-19T10:58:19.465Z,174.38
2018-10-19T10:59:20.511Z,174.38
2018-10-19T11:00:19.411Z,174.38
2018-10-19T11:01:19.533Z,174.38
2018-10-19T11:02:19.377Z,174.38
2018-10-19T11:03:19.401Z,174.38
2018-10-19T11:04:19.307Z,163.13
2018-10-19T11:05:19.311Z,163.13
2018-10-19T11:06:19.250Z,163.13
2018-10-19T11:07:20.501Z,163.13
2018-10-19T11:08:19.201Z,163.13
2018-10-19T11:09:21.176Z,157.50
2018-10-19T11:10:19.143Z,157.50
2018-10-19T11:11:20.197Z,157.50
2018-10-19T11:12:19.072Z,151.88
2018-10-19T11:13:25.133Z,151.88
2018-10-19T11:14:19.016Z,151.88
2018-10-19T11:15:19.073Z,151.88
2018-10-19T11:16:18.981Z,146.25
2018-10-19T11:17:20.008Z,151.88
2018-10-19T11:18:18.937Z,151.88
2018-10-19T11:19:20.954Z,151.88
2018-10-19T11:20:18.860Z,151.88
2018-10-19T11:21:20.894Z,151.88
2018-10-19T11:22:18.832Z,151.88
2018-10-19T11:23:31.632Z,151.88
2018-10-19T11:24:19.002Z,151.88
2018-10-19T11:25:19.814Z,146.25
2018-10-19T11:26:18.703Z,146.25
2018-10-19T11:27:19.778Z,146.25
2018-10-19T11:28:18.644Z,151.88
2018-10-19T11:29:23.578Z,146.25
2018-10-19T11:30:18.574Z,146.25
2018-10-19T11:31:18.583Z,151.88
2018-10-19T11:32:18.532Z,146.25
2018-10-19T11:33:18.500Z,151.88
2018-10-19T11:34:18.603Z,146.25
2018-10-19T11:35:18.464Z,151.88
2018-10-19T11:36:18.496Z,146.25
2018-10-19T11:37:18.455Z,146.25
2018-10-19T11:39:29.882Z,146.25
2018-10-19T11:40:29.897Z,146.25
2018-10-19T11:41:29.790Z,140.63
2018-10-19T11:42:29.811Z,140.63
2018-10-19T11:43:29.730Z,140.63
2018-10-19T11:44:29.717Z,151.88
2018-10-19T11:45:29.673Z,157.50
2018-10-19T11:46:30.757Z,157.50
2018-10-19T11:47:29.632Z,168.75
2018-10-19T11:48:31.692Z,168.75
2018-10-19T11:49:29.563Z,168.75
2018-10-19T11:50:29.558Z,174.38
2018-10-19T11:51:29.513Z,174.38
2018-10-19T11:52:29.500Z,174.38
2018-10-19T11:53:29.470Z,174.38
2018-10-19T11:54:29.431Z,174.38
2018-10-19T11:55:29.408Z,168.75
2018-10-19T11:56:29.483Z,168.75
2018-10-19T11:57:29.359Z,168.75
2018-10-19T11:58:29.372Z,157.50
2018-10-19T11:59:29.309Z,157.50
2018-10-19T12:00:29.275Z,157.50
2018-10-19T12:01:29.292Z,163.13
2018-10-19T12:02:29.213Z,157.50
2018-10-19T12:03:29.242Z,163.13
2018-10-19T12:04:29.166Z,168.75
2018-10-19T12:05:29.129Z,168.75
2018-10-19T12:06:29.148Z,174.38
2018-10-19T12:07:29.091Z,174.38
2018-10-19T12:08:30.161Z,174.38
2018-10-19T12:09:29.028Z,180.00
2018-10-19T12:10:29.056Z,180.00
2018-10-19T12:11:28.977Z,180.00
2018-10-19T12:13:15.514Z,174.38
2018-10-19T12:14:15.368Z,168.75
2018-10-19T12:15:15.518Z,163.13
2018-10-19T12:16:15.452Z,157.50
2018-10-19T12:17:15.383Z,157.50
2018-10-19T12:18:15.262Z,157.50
2018-10-19T12:19:40.220Z,157.50
2018-10-19T12:20:15.210Z,151.88
2018-10-19T12:21:15.300Z,151.88
2018-10-19T12:22:15.153Z,151.88
2018-10-19T12:23:43.733Z,151.88
2018-10-19T12:24:15.101Z,151.88
2018-10-19T12:25:31.758Z,151.88
2018-10-19T12:26:15.047Z,151.88
2018-10-19T12:27:17.160Z,151.88
2018-10-19T12:28:15.001Z,151.88
2018-10-19T12:29:20.699Z,151.88
2018-10-19T12:30:14.937Z,151.88
2018-10-19T12:31:35.908Z,151.88
2018-10-19T12:32:14.888Z,151.88
2018-10-19T12:33:30.764Z,151.88
2018-10-19T12:34:14.835Z,151.88
2018-10-19T12:35:19.764Z,146.25
2018-10-19T12:36:14.785Z,151.88
2018-10-19T12:37:25.778Z,151.88
2018-10-19T12:38:14.723Z,146.25
2018-10-19T12:39:14.797Z,146.25
2018-10-19T12:40:15.748Z,135.00
2018-10-19T12:41:14.783Z,140.63
2018-10-19T12:42:14.641Z,135.00
2018-10-19T12:43:26.183Z,140.63
2018-10-19T12:44:14.572Z,140.63
2018-10-19T12:45:15.684Z,135.00
2018-10-19T12:53:50.746Z,129.38
2018-10-19T12:54:50.687Z,129.38
2018-10-19T12:55:50.736Z,129.38
2018-10-19T12:56:50.645Z,129.38
2018-10-19T12:57:52.696Z,135.00
2018-10-19T12:58:50.633Z,135.00
2018-10-19T13:00:02.452Z,135.00
2018-10-19T13:00:50.523Z,140.63
2018-10-19T13:02:05.425Z,123.75
2018-10-19T13:02:50.471Z,123.75
2018-10-19T13:03:50.476Z,129.38
2018-10-19T13:04:50.421Z,118.13
2018-10-19T13:06:20.049Z,123.75
2018-10-19T13:06:50.374Z,129.38
2018-10-19T13:07:50.350Z,129.38
2018-10-19T13:10:33.395Z,129.38
2018-10-19T13:11:35.522Z,118.13
2018-10-19T13:12:33.331Z,112.50
2018-10-19T13:13:35.393Z,118.13
2018-10-19T13:14:33.267Z,106.88
2018-10-19T13:15:33.364Z,112.50
2018-10-19T13:16:33.232Z,123.75
2018-10-19T13:17:38.895Z,129.38
2018-10-19T13:18:33.196Z,123.75
2018-10-19T13:19:33.187Z,140.63
2018-10-19T13:20:33.126Z,135.00
2018-10-19T13:21:43.955Z,140.63
2018-10-19T13:22:33.061Z,146.25
2018-10-19T13:23:35.159Z,151.88
2018-10-19T13:24:33.016Z,151.88
2018-10-19T13:25:32.990Z,140.63
2018-10-19T13:26:32.971Z,140.63
2018-10-19T13:27:32.941Z,129.38
2018-10-19T13:28:38.872Z,129.38
2018-10-19T13:29:32.876Z,123.75
2018-10-19T13:30:32.854Z,135.00
2018-10-19T13:31:32.826Z,135.00
2018-10-19T13:32:32.814Z,135.00
2018-10-19T13:33:32.866Z,151.88
2018-10-19T13:34:32.745Z,151.88
2018-10-19T13:35:34.869Z,157.50
2018-10-19T13:36:32.709Z,146.25
2018-10-19T13:37:32.693Z,146.25
2018-10-19T13:38:32.648Z,151.88
2018-10-19T13:39:33.745Z,157.50
2018-10-19T13:40:32.619Z,163.13
2018-10-19T13:41:32.647Z,163.13
2018-10-19T13:42:32.546Z,163.13
2018-10-19T13:43:32.524Z,168.75
2018-10-19T13:44:33.567Z,168.75
2018-10-19T13:45:26.245Z,168.75
2018-10-19T13:46:26.185Z,174.38
2018-10-19T13:47:26.075Z,174.38
2018-10-19T13:48:26.048Z,180.00
2018-10-19T13:49:26.041Z,174.38
2018-10-19T13:50:26.022Z,163.13
2018-10-19T13:51:25.967Z,168.75
2018-10-19T13:52:27.099Z,174.38
2018-10-19T13:53:25.920Z,174.38
2018-10-19T13:54:26.951Z,168.75
2018-10-19T13:55:25.897Z,168.75
2018-10-19T13:56:25.838Z,163.13
2018-10-19T13:57:25.813Z,168.75
2018-10-19T13:58:25.879Z,180.00
2018-10-19T13:59:25.783Z,185.63
2018-10-19T14:00:25.757Z,185.63
2018-10-19T14:01:25.778Z,185.63
2018-10-19T14:02:25.711Z,180.00
2018-10-19T14:03:25.659Z,174.38
2018-10-19T14:04:26.713Z,168.75
2018-10-19T14:05:25.744Z,163.13
2018-10-19T14:06:26.630Z,163.13
2018-10-19T14:07:25.617Z,157.50
2018-10-19T14:08:25.547Z,163.13
2018-10-19T14:09:25.575Z,163.13
2018-10-19T14:10:25.471Z,163.13
2018-10-19T14:11:25.449Z,168.75
2018-10-19T14:12:25.420Z,174.38
2018-10-19T14:13:25.453Z,174.38
2018-10-19T14:14:25.387Z,174.38
2018-10-19T14:15:25.593Z,163.13
2018-10-19T14:16:25.323Z,157.50
2018-10-19T14:17:25.315Z,151.88